sensor_id;sensor_type;location;lat;lon;timestamp;temperature;humidity
12025;DHT22;6073;53.230;10.444;2023-02-28T00:00:01;-2.70;99.90
12025;DHT22;6073;53.230;10.444;2023-02-28T00:02:33;-2.60;99.90
12025;DHT22;6073;53.230;10.444;2023-02-28T00:04:59;-2.60;99.90
12025;DHT22;6073;53.230;10.444;2023-02-28T00:07:27;-2.60;99.90
12025;DHT22;6073;53.230;10.444;2023-02-28T00:09:53;-2.70;99.90
12025;DHT22;6073;53.230;10.444;2023-02-28T00:12:18;-2.70;99.90
12025;DHT22;6073;53.230;10.444;2023-02-28T00:14:44;-2.70;99.90
12025;DHT22;6073;53.230;10.444;2023-02-28T00:17:09;-2.80;99.90
12025;DHT22;6073;53.230;10.444;2023-02-28T00:19:35;-2.70;99.90
12025;DHT22;6073;53.230;10.444;2023-02-28T00:22:00;-2.80;99.90
12025;DHT22;6073;53.230;10.444;2023-02-28T00:24:26;-2.80;99.90
12025;DHT22;6073;53.230;10.444;2023-02-28T00:26:51;-2.80;99.90
12025;DHT22;6073;53.230;10.444;2023-02-28T00:29:17;-2.80;99.90
12025;DHT22;6073;53.230;10.444;2023-02-28T00:31:42;-2.80;99.90
12025;DHT22;6073;53.230;10.444;2023-02-28T00:34:08;-2.80;99.90
12025;DHT22;6073;53.230;10.444;2023-02-28T00:36:33;-2.80;99.90
12025;DHT22;6073;53.230;10.444;2023-02-28T00:38:59;-2.80;99.90
12025;DHT22;6073;53.230;10.444;2023-02-28T00:41:24;-2.80;99.90
12025;DHT22;6073;53.230;10.444;2023-02-28T00:43:50;-2.90;99.90
12025;DHT22;6073;53.230;10.444;2023-02-28T00:46:15;-2.90;99.90
12025;DHT22;6073;53.230;10.444;2023-02-28T00:48:41;-2.90;99.90
12025;DHT22;6073;53.230;10.444;2023-02-28T00:51:07;-2.90;99.90
12025;DHT22;6073;53.230;10.444;2023-02-28T00:53:32;-3.00;99.90
12025;DHT22;6073;53.230;10.444;2023-02-28T00:55:58;-3.00;99.90
12025;DHT22;6073;53.230;10.444;2023-02-28T00:58:24;-3.00;99.90
12025;DHT22;6073;53.230;10.444;2023-02-28T01:00:51;-3.00;99.90
12025;DHT22;6073;53.230;10.444;2023-02-28T01:03:17;-3.00;99.90
12025;DHT22;6073;53.230;10.444;2023-02-28T01:05:44;-3.00;99.90
12025;DHT22;6073;53.230;10.444;2023-02-28T01:08:09;-3.00;99.90
12025;DHT22;6073;53.230;10.444;2023-02-28T01:10:35;-3.00;99.90
12025;DHT22;6073;53.230;10.444;2023-02-28T01:13:02;-2.90;99.90
12025;DHT22;6073;53.230;10.444;2023-02-28T01:15:28;-2.90;99.90
12025;DHT22;6073;53.230;10.444;2023-02-28T01:17:53;-2.90;99.90
12025;DHT22;6073;53.230;10.444;2023-02-28T01:20:19;-2.90;99.90
12025;DHT22;6073;53.230;10.444;2023-02-28T01:22:45;-2.80;99.90
12025;DHT22;6073;53.230;10.444;2023-02-28T01:25:10;-2.80;99.90
12025;DHT22;6073;53.230;10.444;2023-02-28T01:27:36;-2.80;99.90
12025;DHT22;6073;53.230;10.444;2023-02-28T01:30:02;-2.80;99.90
12025;DHT22;6073;53.230;10.444;2023-02-28T01:32:28;-2.70;99.90
12025;DHT22;6073;53.230;10.444;2023-02-28T01:34:53;-2.70;99.90
12025;DHT22;6073;53.230;10.444;2023-02-28T01:37:19;-2.80;99.90
12025;DHT22;6073;53.230;10.444;2023-02-28T01:39:44;-2.80;99.90
12025;DHT22;6073;53.230;10.444;2023-02-28T01:42:13;-2.80;99.90
12025;DHT22;6073;53.230;10.444;2023-02-28T01:47:34;-2.80;99.90
12025;DHT22;6073;53.230;10.444;2023-02-28T01:50:04;-2.90;99.90
12025;DHT22;6073;53.230;10.444;2023-02-28T01:52:32;-2.90;99.90
12025;DHT22;6073;53.230;10.444;2023-02-28T01:54:59;-3.00;99.90
12025;DHT22;6073;53.230;10.444;2023-02-28T01:57:30;-3.00;99.90
12025;DHT22;6073;53.230;10.444;2023-02-28T02:00:06;-3.00;99.90
12025;DHT22;6073;53.230;10.444;2023-02-28T02:02:33;-3.10;99.90
12025;DHT22;6073;53.230;10.444;2023-02-28T02:05:18;-3.10;99.90
12025;DHT22;6073;53.230;10.444;2023-02-28T02:07:45;-3.10;99.90
12025;DHT22;6073;53.230;10.444;2023-02-28T02:10:21;-3.20;99.90
12025;DHT22;6073;53.230;10.444;2023-02-28T02:15:54;-3.20;99.90
12025;DHT22;6073;53.230;10.444;2023-02-28T02:18:31;-3.30;99.90
12025;DHT22;6073;53.230;10.444;2023-02-28T02:21:03;-3.30;99.90
12025;DHT22;6073;53.230;10.444;2023-02-28T02:32:55;-3.40;99.90
12025;DHT22;6073;53.230;10.444;2023-02-28T02:35:27;-3.40;99.90
12025;DHT22;6073;53.230;10.444;2023-02-28T02:41:04;-3.40;99.90
12025;DHT22;6073;53.230;10.444;2023-02-28T02:43:33;-3.40;99.90
12025;DHT22;6073;53.230;10.444;2023-02-28T02:46:14;-3.40;99.90
12025;DHT22;6073;53.230;10.444;2023-02-28T02:48:42;-3.50;99.90
12025;DHT22;6073;53.230;10.444;2023-02-28T02:51:16;-3.40;99.90
12025;DHT22;6073;53.230;10.444;2023-02-28T02:53:55;-3.40;99.90
12025;DHT22;6073;53.230;10.444;2023-02-28T02:56:26;-3.50;99.90
12025;DHT22;6073;53.230;10.444;2023-02-28T02:58:55;-3.50;99.90
12025;DHT22;6073;53.230;10.444;2023-02-28T03:01:25;-3.50;99.90
12025;DHT22;6073;53.230;10.444;2023-02-28T03:04:06;-3.50;99.90
12025;DHT22;6073;53.230;10.444;2023-02-28T03:06:33;-3.50;99.90
12025;DHT22;6073;53.230;10.444;2023-02-28T03:08:59;-3.50;99.90
12025;DHT22;6073;53.230;10.444;2023-02-28T03:11:25;-3.50;99.90
12025;DHT22;6073;53.230;10.444;2023-02-28T03:19:38;-3.50;99.90
12025;DHT22;6073;53.230;10.444;2023-02-28T03:25:35;-3.40;99.90
12025;DHT22;6073;53.230;10.444;2023-02-28T03:28:15;-3.40;99.90
12025;DHT22;6073;53.230;10.444;2023-02-28T03:30:47;-3.50;99.90
12025;DHT22;6073;53.230;10.444;2023-02-28T03:33:23;-3.50;99.90
12025;DHT22;6073;53.230;10.444;2023-02-28T03:35:57;-3.50;99.90
12025;DHT22;6073;53.230;10.444;2023-02-28T03:38:52;-3.50;99.90
12025;DHT22;6073;53.230;10.444;2023-02-28T03:41:23;-3.60;99.90
12025;DHT22;6073;53.230;10.444;2023-02-28T03:43:55;-3.60;99.90
12025;DHT22;6073;53.230;10.444;2023-02-28T03:46:24;-3.60;99.90
12025;DHT22;6073;53.230;10.444;2023-02-28T03:49:02;-3.60;99.90
12025;DHT22;6073;53.230;10.444;2023-02-28T03:51:30;-3.60;99.90
12025;DHT22;6073;53.230;10.444;2023-02-28T03:54:04;-3.70;99.90
12025;DHT22;6073;53.230;10.444;2023-02-28T03:56:37;-3.80;99.90
12025;DHT22;6073;53.230;10.444;2023-02-28T03:59:26;-3.80;99.90
12025;DHT22;6073;53.230;10.444;2023-02-28T04:01:52;-3.80;99.90
12025;DHT22;6073;53.230;10.444;2023-02-28T04:04:18;-3.80;99.90
12025;DHT22;6073;53.230;10.444;2023-02-28T04:06:44;-3.80;99.90
12025;DHT22;6073;53.230;10.444;2023-02-28T04:09:13;-3.80;99.90
12025;DHT22;6073;53.230;10.444;2023-02-28T04:11:41;-3.80;99.90
12025;DHT22;6073;53.230;10.444;2023-02-28T04:14:08;-3.90;99.90
12025;DHT22;6073;53.230;10.444;2023-02-28T04:16:40;-3.80;99.90
12025;DHT22;6073;53.230;10.444;2023-02-28T04:19:07;-3.80;99.90
12025;DHT22;6073;53.230;10.444;2023-02-28T04:21:37;-3.90;99.90
12025;DHT22;6073;53.230;10.444;2023-02-28T04:24:05;-3.90;99.90
12025;DHT22;6073;53.230;10.444;2023-02-28T04:26:32;-3.90;99.90
12025;DHT22;6073;53.230;10.444;2023-02-28T04:28:58;-3.90;99.90
12025;DHT22;6073;53.230;10.444;2023-02-28T04:31:24;-3.90;99.90
12025;DHT22;6073;53.230;10.444;2023-02-28T04:33:50;-3.90;99.90
12025;DHT22;6073;53.230;10.444;2023-02-28T04:36:15;-4.00;99.90
12025;DHT22;6073;53.230;10.444;2023-02-28T04:38:44;-4.00;99.90
12025;DHT22;6073;53.230;10.444;2023-02-28T04:41:09;-4.00;99.90
12025;DHT22;6073;53.230;10.444;2023-02-28T04:43:35;-4.00;99.90
12025;DHT22;6073;53.230;10.444;2023-02-28T04:46:02;-4.00;99.90
12025;DHT22;6073;53.230;10.444;2023-02-28T04:48:29;-4.00;99.90
12025;DHT22;6073;53.230;10.444;2023-02-28T04:50:55;-4.00;99.90
12025;DHT22;6073;53.230;10.444;2023-02-28T04:53:24;-4.00;99.90
12025;DHT22;6073;53.230;10.444;2023-02-28T04:55:50;-4.00;99.90
12025;DHT22;6073;53.230;10.444;2023-02-28T04:58:15;-4.00;99.90
12025;DHT22;6073;53.230;10.444;2023-02-28T05:00:41;-4.00;99.90
12025;DHT22;6073;53.230;10.444;2023-02-28T05:03:07;-4.10;99.90
12025;DHT22;6073;53.230;10.444;2023-02-28T05:05:32;-4.20;99.90
12025;DHT22;6073;53.230;10.444;2023-02-28T05:07:58;-4.20;99.90
12025;DHT22;6073;53.230;10.444;2023-02-28T05:10:23;-4.20;99.90
12025;DHT22;6073;53.230;10.444;2023-02-28T05:12:49;-4.20;99.90
12025;DHT22;6073;53.230;10.444;2023-02-28T05:15:16;-4.20;99.90
12025;DHT22;6073;53.230;10.444;2023-02-28T05:17:41;-4.20;99.90
12025;DHT22;6073;53.230;10.444;2023-02-28T05:20:08;-4.20;99.90
12025;DHT22;6073;53.230;10.444;2023-02-28T05:22:36;-4.20;99.90
12025;DHT22;6073;53.230;10.444;2023-02-28T05:25:03;-4.30;99.90
12025;DHT22;6073;53.230;10.444;2023-02-28T05:27:30;-4.30;99.90
12025;DHT22;6073;53.230;10.444;2023-02-28T05:29:56;-4.30;99.90
12025;DHT22;6073;53.230;10.444;2023-02-28T05:32:21;-4.40;99.90
12025;DHT22;6073;53.230;10.444;2023-02-28T05:34:47;-4.30;99.90
12025;DHT22;6073;53.230;10.444;2023-02-28T05:37:13;-4.40;99.90
12025;DHT22;6073;53.230;10.444;2023-02-28T05:39:40;-4.40;99.90
12025;DHT22;6073;53.230;10.444;2023-02-28T05:42:05;-4.40;99.90
12025;DHT22;6073;53.230;10.444;2023-02-28T05:44:31;-4.40;99.90
12025;DHT22;6073;53.230;10.444;2023-02-28T05:46:57;-4.50;99.90
12025;DHT22;6073;53.230;10.444;2023-02-28T05:49:22;-4.50;99.90
12025;DHT22;6073;53.230;10.444;2023-02-28T05:51:48;-4.50;99.90
12025;DHT22;6073;53.230;10.444;2023-02-28T05:54:14;-4.50;99.90
12025;DHT22;6073;53.230;10.444;2023-02-28T05:56:39;-4.50;99.90
12025;DHT22;6073;53.230;10.444;2023-02-28T05:59:06;-4.50;99.90
12025;DHT22;6073;53.230;10.444;2023-02-28T06:01:37;-4.50;99.90
12025;DHT22;6073;53.230;10.444;2023-02-28T06:04:06;-4.60;99.90
12025;DHT22;6073;53.230;10.444;2023-02-28T06:06:33;-4.60;99.90
12025;DHT22;6073;53.230;10.444;2023-02-28T06:09:03;-4.60;99.90
12025;DHT22;6073;53.230;10.444;2023-02-28T06:11:28;-4.60;99.90
12025;DHT22;6073;53.230;10.444;2023-02-28T06:13:55;-4.60;99.90
12025;DHT22;6073;53.230;10.444;2023-02-28T06:16:21;-4.60;99.90
12025;DHT22;6073;53.230;10.444;2023-02-28T06:18:47;-4.50;99.90
12025;DHT22;6073;53.230;10.444;2023-02-28T06:21:13;-4.50;99.90
12025;DHT22;6073;53.230;10.444;2023-02-28T06:23:38;-4.50;99.90
12025;DHT22;6073;53.230;10.444;2023-02-28T06:26:04;-4.50;99.90
12025;DHT22;6073;53.230;10.444;2023-02-28T06:28:30;-4.50;99.90
12025;DHT22;6073;53.230;10.444;2023-02-28T06:30:55;-4.40;99.90
12025;DHT22;6073;53.230;10.444;2023-02-28T06:33:21;-4.40;99.90
12025;DHT22;6073;53.230;10.444;2023-02-28T06:35:49;-4.40;99.90
12025;DHT22;6073;53.230;10.444;2023-02-28T06:38:15;-4.30;99.90
12025;DHT22;6073;53.230;10.444;2023-02-28T06:40:40;-4.20;99.90
12025;DHT22;6073;53.230;10.444;2023-02-28T06:43:06;-4.20;99.90
12025;DHT22;6073;53.230;10.444;2023-02-28T06:45:32;-4.10;99.90
12025;DHT22;6073;53.230;10.444;2023-02-28T06:47:58;-4.00;99.90
12025;DHT22;6073;53.230;10.444;2023-02-28T06:50:25;-4.00;99.90
12025;DHT22;6073;53.230;10.444;2023-02-28T06:52:50;-4.00;99.90
12025;DHT22;6073;53.230;10.444;2023-02-28T06:55:19;-3.90;99.90
12025;DHT22;6073;53.230;10.444;2023-02-28T06:57:44;-3.80;99.90
12025;DHT22;6073;53.230;10.444;2023-02-28T07:00:11;-3.70;99.90
12025;DHT22;6073;53.230;10.444;2023-02-28T07:02:37;-3.60;99.90
12025;DHT22;6073;53.230;10.444;2023-02-28T07:05:04;-3.50;99.90
12025;DHT22;6073;53.230;10.444;2023-02-28T07:07:30;-3.40;99.90
12025;DHT22;6073;53.230;10.444;2023-02-28T07:09:55;-3.40;99.90
12025;DHT22;6073;53.230;10.444;2023-02-28T07:12:21;-3.30;99.90
12025;DHT22;6073;53.230;10.444;2023-02-28T07:14:47;-3.20;99.90
12025;DHT22;6073;53.230;10.444;2023-02-28T07:17:12;-3.10;99.90
12025;DHT22;6073;53.230;10.444;2023-02-28T07:19:39;-2.60;99.90
12025;DHT22;6073;53.230;10.444;2023-02-28T07:22:05;-1.80;99.90
12025;DHT22;6073;53.230;10.444;2023-02-28T07:24:30;-1.10;99.90
12025;DHT22;6073;53.230;10.444;2023-02-28T07:26:56;-0.30;99.90
12025;DHT22;6073;53.230;10.444;2023-02-28T07:29:22;0.20;99.90
12025;DHT22;6073;53.230;10.444;2023-02-28T07:31:47;0.70;99.90
12025;DHT22;6073;53.230;10.444;2023-02-28T07:34:13;1.20;99.90
12025;DHT22;6073;53.230;10.444;2023-02-28T07:36:39;1.40;99.90
12025;DHT22;6073;53.230;10.444;2023-02-28T07:39:05;1.70;99.90
12025;DHT22;6073;53.230;10.444;2023-02-28T07:41:30;1.80;99.90
12025;DHT22;6073;53.230;10.444;2023-02-28T07:43:59;1.90;99.90
12025;DHT22;6073;53.230;10.444;2023-02-28T07:46:26;2.20;99.90
12025;DHT22;6073;53.230;10.444;2023-02-28T07:48:52;2.60;99.90
12025;DHT22;6073;53.230;10.444;2023-02-28T07:51:19;3.20;99.90
12025;DHT22;6073;53.230;10.444;2023-02-28T07:53:46;3.50;99.90
12025;DHT22;6073;53.230;10.444;2023-02-28T07:56:11;4.00;99.90
12025;DHT22;6073;53.230;10.444;2023-02-28T07:58:37;3.90;99.90
12025;DHT22;6073;53.230;10.444;2023-02-28T08:01:07;3.80;99.90
12025;DHT22;6073;53.230;10.444;2023-02-28T08:03:33;3.90;99.90
12025;DHT22;6073;53.230;10.444;2023-02-28T08:05:58;4.40;99.90
12025;DHT22;6073;53.230;10.444;2023-02-28T08:08:24;4.80;99.90
12025;DHT22;6073;53.230;10.444;2023-02-28T08:10:53;4.70;99.90
12025;DHT22;6073;53.230;10.444;2023-02-28T08:13:19;4.80;99.90
12025;DHT22;6073;53.230;10.444;2023-02-28T08:15:44;4.80;99.90
12025;DHT22;6073;53.230;10.444;2023-02-28T08:18:11;5.00;99.90
12025;DHT22;6073;53.230;10.444;2023-02-28T08:20:36;5.20;99.90
12025;DHT22;6073;53.230;10.444;2023-02-28T08:23:02;5.10;99.90
12025;DHT22;6073;53.230;10.444;2023-02-28T08:25:27;5.30;99.90
12025;DHT22;6073;53.230;10.444;2023-02-28T08:27:53;6.00;99.90
12025;DHT22;6073;53.230;10.444;2023-02-28T08:30:19;5.90;99.90
12025;DHT22;6073;53.230;10.444;2023-02-28T08:32:45;6.30;99.90
12025;DHT22;6073;53.230;10.444;2023-02-28T08:35:10;6.50;99.90
12025;DHT22;6073;53.230;10.444;2023-02-28T08:37:36;6.50;99.90
12025;DHT22;6073;53.230;10.444;2023-02-28T08:40:02;6.60;99.90
12025;DHT22;6073;53.230;10.444;2023-02-28T08:42:29;8.30;99.90
12025;DHT22;6073;53.230;10.444;2023-02-28T08:44:54;7.40;99.90
12025;DHT22;6073;53.230;10.444;2023-02-28T08:47:20;7.50;99.90
12025;DHT22;6073;53.230;10.444;2023-02-28T08:49:46;7.40;99.90
12025;DHT22;6073;53.230;10.444;2023-02-28T08:52:11;7.70;99.90
12025;DHT22;6073;53.230;10.444;2023-02-28T08:54:37;7.40;99.90
12025;DHT22;6073;53.230;10.444;2023-02-28T08:57:03;7.00;99.90
12025;DHT22;6073;53.230;10.444;2023-02-28T08:59:29;6.20;99.90
12025;DHT22;6073;53.230;10.444;2023-02-28T09:01:54;5.40;99.90
12025;DHT22;6073;53.230;10.444;2023-02-28T09:04:20;5.50;99.90
12025;DHT22;6073;53.230;10.444;2023-02-28T09:06:45;6.10;99.90
12025;DHT22;6073;53.230;10.444;2023-02-28T09:09:11;6.80;99.90
12025;DHT22;6073;53.230;10.444;2023-02-28T09:11:37;7.40;99.90
12025;DHT22;6073;53.230;10.444;2023-02-28T09:14:03;7.60;99.90
12025;DHT22;6073;53.230;10.444;2023-02-28T09:16:29;7.60;99.90
12025;DHT22;6073;53.230;10.444;2023-02-28T09:18:56;8.30;99.90
12025;DHT22;6073;53.230;10.444;2023-02-28T09:21:21;8.50;99.90
12025;DHT22;6073;53.230;10.444;2023-02-28T09:23:49;8.30;99.90
12025;DHT22;6073;53.230;10.444;2023-02-28T09:26:17;8.70;99.90
12025;DHT22;6073;53.230;10.444;2023-02-28T09:28:44;9.00;99.90
12025;DHT22;6073;53.230;10.444;2023-02-28T09:31:26;8.70;99.90
12025;DHT22;6073;53.230;10.444;2023-02-28T09:33:54;8.10;99.90
12025;DHT22;6073;53.230;10.444;2023-02-28T09:36:20;8.50;99.90
12025;DHT22;6073;53.230;10.444;2023-02-28T09:38:46;8.80;99.90
12025;DHT22;6073;53.230;10.444;2023-02-28T09:41:18;8.80;99.90
12025;DHT22;6073;53.230;10.444;2023-02-28T09:43:47;8.60;99.90
12025;DHT22;6073;53.230;10.444;2023-02-28T09:46:33;8.20;99.90
12025;DHT22;6073;53.230;10.444;2023-02-28T09:49:06;7.70;99.90
12025;DHT22;6073;53.230;10.444;2023-02-28T09:54:15;6.90;99.90
12025;DHT22;6073;53.230;10.444;2023-02-28T09:56:45;6.60;99.90
12025;DHT22;6073;53.230;10.444;2023-02-28T10:04:21;6.70;99.90
12025;DHT22;6073;53.230;10.444;2023-02-28T10:06:51;6.60;99.90
12025;DHT22;6073;53.230;10.444;2023-02-28T10:09:27;6.60;99.90
12025;DHT22;6073;53.230;10.444;2023-02-28T10:12:00;6.50;99.90
12025;DHT22;6073;53.230;10.444;2023-02-28T10:14:27;6.50;99.90
12025;DHT22;6073;53.230;10.444;2023-02-28T10:16:58;6.70;99.90
12025;DHT22;6073;53.230;10.444;2023-02-28T10:19:54;6.80;99.90
12025;DHT22;6073;53.230;10.444;2023-02-28T10:24:59;6.80;99.90
12025;DHT22;6073;53.230;10.444;2023-02-28T10:27:31;6.90;99.90
12025;DHT22;6073;53.230;10.444;2023-02-28T10:29:58;7.00;99.90
12025;DHT22;6073;53.230;10.444;2023-02-28T10:35:00;7.10;99.90
12025;DHT22;6073;53.230;10.444;2023-02-28T10:37:28;6.90;99.90
12025;DHT22;6073;53.230;10.444;2023-02-28T10:39:53;6.90;99.90
12025;DHT22;6073;53.230;10.444;2023-02-28T10:42:29;7.00;99.90
12025;DHT22;6073;53.230;10.444;2023-02-28T10:45:16;6.70;99.90
12025;DHT22;6073;53.230;10.444;2023-02-28T10:54:10;6.80;99.90
12025;DHT22;6073;53.230;10.444;2023-02-28T10:56:18;7.00;99.90
12025;DHT22;6073;53.230;10.444;2023-02-28T10:59:03;7.00;99.90
12025;DHT22;6073;53.230;10.444;2023-02-28T11:03:58;7.10;99.90
12025;DHT22;6073;53.230;10.444;2023-02-28T11:06:33;7.10;99.90
12025;DHT22;6073;53.230;10.444;2023-02-28T11:09:23;7.20;99.90
12025;DHT22;6073;53.230;10.444;2023-02-28T11:11:50;7.00;99.90
12025;DHT22;6073;53.230;10.444;2023-02-28T11:14:24;6.90;99.90
12025;DHT22;6073;53.230;10.444;2023-02-28T11:16:51;6.90;99.90
12025;DHT22;6073;53.230;10.444;2023-02-28T11:19:21;6.90;99.90
12025;DHT22;6073;53.230;10.444;2023-02-28T11:21:55;6.80;99.90
12025;DHT22;6073;53.230;10.444;2023-02-28T11:24:43;7.00;99.90
12025;DHT22;6073;53.230;10.444;2023-02-28T11:29:58;6.70;99.90
12025;DHT22;6073;53.230;10.444;2023-02-28T11:32:28;6.80;99.90
12025;DHT22;6073;53.230;10.444;2023-02-28T11:35:22;6.90;99.90
12025;DHT22;6073;53.230;10.444;2023-02-28T11:37:48;6.90;99.90
12025;DHT22;6073;53.230;10.444;2023-02-28T11:40:15;6.90;99.90
12025;DHT22;6073;53.230;10.444;2023-02-28T11:46:29;6.80;99.90
12025;DHT22;6073;53.230;10.444;2023-02-28T11:51:23;7.00;99.90
12025;DHT22;6073;53.230;10.444;2023-02-28T11:56:39;6.50;99.90
12025;DHT22;6073;53.230;10.444;2023-02-28T11:59:30;6.50;99.90
12025;DHT22;6073;53.230;10.444;2023-02-28T12:02:03;6.80;99.90
12025;DHT22;6073;53.230;10.444;2023-02-28T12:04:36;6.80;99.90
12025;DHT22;6073;53.230;10.444;2023-02-28T12:07:13;6.90;99.90
12025;DHT22;6073;53.230;10.444;2023-02-28T12:09:59;6.80;99.90
12025;DHT22;6073;53.230;10.444;2023-02-28T12:16:09;6.60;99.90
12025;DHT22;6073;53.230;10.444;2023-02-28T12:18:44;6.10;99.90
12025;DHT22;6073;53.230;10.444;2023-02-28T12:26:39;6.20;99.90
12025;DHT22;6073;53.230;10.444;2023-02-28T12:29:17;6.20;99.90
12025;DHT22;6073;53.230;10.444;2023-02-28T12:32:16;6.10;99.90
12025;DHT22;6073;53.230;10.444;2023-02-28T12:34:52;5.80;99.90
12025;DHT22;6073;53.230;10.444;2023-02-28T12:37:28;5.70;99.90
12025;DHT22;6073;53.230;10.444;2023-02-28T12:40:00;5.70;99.90
12025;DHT22;6073;53.230;10.444;2023-02-28T12:42:34;5.80;99.90
12025;DHT22;6073;53.230;10.444;2023-02-28T12:45:18;5.70;99.90
12025;DHT22;6073;53.230;10.444;2023-02-28T12:47:48;5.60;99.90
12025;DHT22;6073;53.230;10.444;2023-02-28T12:50:16;5.80;99.90
12025;DHT22;6073;53.230;10.444;2023-02-28T12:58:28;5.90;99.90
12025;DHT22;6073;53.230;10.444;2023-02-28T13:07:10;5.80;99.90
12025;DHT22;6073;53.230;10.444;2023-02-28T13:09:40;5.70;99.90
12025;DHT22;6073;53.230;10.444;2023-02-28T13:12:13;5.90;99.90
12025;DHT22;6073;53.230;10.444;2023-02-28T13:14:40;5.90;99.90
12025;DHT22;6073;53.230;10.444;2023-02-28T13:19:37;6.10;99.90
12025;DHT22;6073;53.230;10.444;2023-02-28T13:22:03;6.00;99.90
12025;DHT22;6073;53.230;10.444;2023-02-28T13:24:42;6.10;99.90
12025;DHT22;6073;53.230;10.444;2023-02-28T13:34:38;6.00;99.90
12025;DHT22;6073;53.230;10.444;2023-02-28T13:39:53;5.80;99.90
12025;DHT22;6073;53.230;10.444;2023-02-28T13:42:23;5.80;99.90
12025;DHT22;6073;53.230;10.444;2023-02-28T13:47:45;6.10;99.90
12025;DHT22;6073;53.230;10.444;2023-02-28T13:55:53;5.90;99.90
12025;DHT22;6073;53.230;10.444;2023-02-28T14:06:38;6.00;99.90
12025;DHT22;6073;53.230;10.444;2023-02-28T14:09:45;5.90;99.90
12025;DHT22;6073;53.230;10.444;2023-02-28T14:18:00;6.10;99.90
12025;DHT22;6073;53.230;10.444;2023-02-28T14:20:29;6.00;99.90
12025;DHT22;6073;53.230;10.444;2023-02-28T14:23:18;6.10;99.90
12025;DHT22;6073;53.230;10.444;2023-02-28T14:31:39;6.20;99.90
12025;DHT22;6073;53.230;10.444;2023-02-28T14:34:43;6.10;99.90
12025;DHT22;6073;53.230;10.444;2023-02-28T14:37:19;6.10;99.90
12025;DHT22;6073;53.230;10.444;2023-02-28T14:39:46;6.10;99.90
12025;DHT22;6073;53.230;10.444;2023-02-28T14:42:34;6.10;99.90
12025;DHT22;6073;53.230;10.444;2023-02-28T14:45:00;6.10;99.90
12025;DHT22;6073;53.230;10.444;2023-02-28T14:47:30;6.10;99.90
12025;DHT22;6073;53.230;10.444;2023-02-28T14:49:57;6.00;99.90
12025;DHT22;6073;53.230;10.444;2023-02-28T14:52:28;6.00;99.90
12025;DHT22;6073;53.230;10.444;2023-02-28T14:55:06;5.90;99.90
12025;DHT22;6073;53.230;10.444;2023-02-28T14:57:38;6.00;99.90
12025;DHT22;6073;53.230;10.444;2023-02-28T15:02:41;5.80;99.90
12025;DHT22;6073;53.230;10.444;2023-02-28T15:05:22;5.70;99.90
12025;DHT22;6073;53.230;10.444;2023-02-28T15:07:48;5.80;99.90
12025;DHT22;6073;53.230;10.444;2023-02-28T15:10:26;5.90;99.90
12025;DHT22;6073;53.230;10.444;2023-02-28T15:12:56;5.80;99.90
12025;DHT22;6073;53.230;10.444;2023-02-28T15:15:25;5.90;99.90
12025;DHT22;6073;53.230;10.444;2023-02-28T15:17:55;5.80;99.90
12025;DHT22;6073;53.230;10.444;2023-02-28T15:20:22;5.80;99.90
12025;DHT22;6073;53.230;10.444;2023-02-28T15:22:50;5.70;99.90
12025;DHT22;6073;53.230;10.444;2023-02-28T15:25:19;5.90;99.90
12025;DHT22;6073;53.230;10.444;2023-02-28T15:27:48;5.80;99.90
12025;DHT22;6073;53.230;10.444;2023-02-28T15:30:18;5.80;99.90
12025;DHT22;6073;53.230;10.444;2023-02-28T15:32:45;5.80;99.90
12025;DHT22;6073;53.230;10.444;2023-02-28T15:35:40;5.80;99.90
12025;DHT22;6073;53.230;10.444;2023-02-28T15:40:59;5.60;99.90
12025;DHT22;6073;53.230;10.444;2023-02-28T15:45:52;5.50;99.90
12025;DHT22;6073;53.230;10.444;2023-02-28T15:48:23;5.40;99.90
12025;DHT22;6073;53.230;10.444;2023-02-28T15:51:01;5.40;99.90
12025;DHT22;6073;53.230;10.444;2023-02-28T15:53:33;5.30;99.90
12025;DHT22;6073;53.230;10.444;2023-02-28T15:56:03;5.10;99.90
12025;DHT22;6073;53.230;10.444;2023-02-28T15:58:29;5.10;99.90
12025;DHT22;6073;53.230;10.444;2023-02-28T16:01:06;5.00;99.90
12025;DHT22;6073;53.230;10.444;2023-02-28T16:03:42;4.90;99.90
12025;DHT22;6073;53.230;10.444;2023-02-28T16:06:34;4.90;99.90
12025;DHT22;6073;53.230;10.444;2023-02-28T16:09:01;4.80;99.90
12025;DHT22;6073;53.230;10.444;2023-02-28T16:11:26;4.70;99.90
12025;DHT22;6073;53.230;10.444;2023-02-28T16:13:52;4.60;99.90
12025;DHT22;6073;53.230;10.444;2023-02-28T16:16:23;4.50;99.90
12025;DHT22;6073;53.230;10.444;2023-02-28T16:18:49;4.40;99.90
12025;DHT22;6073;53.230;10.444;2023-02-28T16:21:15;4.30;99.90
12025;DHT22;6073;53.230;10.444;2023-02-28T16:23:41;4.20;99.90
12025;DHT22;6073;53.230;10.444;2023-02-28T16:26:08;4.10;99.90
12025;DHT22;6073;53.230;10.444;2023-02-28T16:28:37;4.10;99.90
12025;DHT22;6073;53.230;10.444;2023-02-28T16:31:06;3.90;99.90
12025;DHT22;6073;53.230;10.444;2023-02-28T16:33:33;3.80;99.90
12025;DHT22;6073;53.230;10.444;2023-02-28T16:35:59;3.60;99.90
12025;DHT22;6073;53.230;10.444;2023-02-28T16:38:25;3.40;99.90
12025;DHT22;6073;53.230;10.444;2023-02-28T16:40:53;3.20;99.90
12025;DHT22;6073;53.230;10.444;2023-02-28T16:43:23;3.10;99.90
12025;DHT22;6073;53.230;10.444;2023-02-28T16:45:57;2.80;99.90
12025;DHT22;6073;53.230;10.444;2023-02-28T16:48:24;2.70;99.90
12025;DHT22;6073;53.230;10.444;2023-02-28T16:50:50;2.50;99.90
12025;DHT22;6073;53.230;10.444;2023-02-28T16:53:16;2.40;99.90
12025;DHT22;6073;53.230;10.444;2023-02-28T16:55:42;2.20;99.90
12025;DHT22;6073;53.230;10.444;2023-02-28T16:58:14;2.10;99.90
12025;DHT22;6073;53.230;10.444;2023-02-28T17:00:40;1.90;99.90
12025;DHT22;6073;53.230;10.444;2023-02-28T17:03:08;1.80;99.90
12025;DHT22;6073;53.230;10.444;2023-02-28T17:05:37;1.70;99.90
12025;DHT22;6073;53.230;10.444;2023-02-28T17:08:03;1.60;99.90
12025;DHT22;6073;53.230;10.444;2023-02-28T17:10:29;1.50;99.90
12025;DHT22;6073;53.230;10.444;2023-02-28T17:12:55;1.40;99.90
12025;DHT22;6073;53.230;10.444;2023-02-28T17:15:21;1.20;99.90
12025;DHT22;6073;53.230;10.444;2023-02-28T17:17:48;1.10;99.90
12025;DHT22;6073;53.230;10.444;2023-02-28T17:20:16;1.00;99.90
12025;DHT22;6073;53.230;10.444;2023-02-28T17:22:41;0.90;99.90
12025;DHT22;6073;53.230;10.444;2023-02-28T17:25:08;0.90;99.90
12025;DHT22;6073;53.230;10.444;2023-02-28T17:27:34;0.80;99.90
12025;DHT22;6073;53.230;10.444;2023-02-28T17:30:00;0.80;99.90
12025;DHT22;6073;53.230;10.444;2023-02-28T17:32:26;0.70;99.90
12025;DHT22;6073;53.230;10.444;2023-02-28T17:34:53;0.60;99.90
12025;DHT22;6073;53.230;10.444;2023-02-28T17:37:18;0.50;99.90
12025;DHT22;6073;53.230;10.444;2023-02-28T17:39:44;0.50;99.90
12025;DHT22;6073;53.230;10.444;2023-02-28T17:42:09;0.50;99.90
12025;DHT22;6073;53.230;10.444;2023-02-28T17:44:35;0.40;99.90
12025;DHT22;6073;53.230;10.444;2023-02-28T17:47:02;0.30;99.90
12025;DHT22;6073;53.230;10.444;2023-02-28T17:49:28;0.30;99.90
12025;DHT22;6073;53.230;10.444;2023-02-28T17:51:54;0.30;99.90
12025;DHT22;6073;53.230;10.444;2023-02-28T17:54:19;0.20;99.90
12025;DHT22;6073;53.230;10.444;2023-02-28T17:56:45;0.10;99.90
12025;DHT22;6073;53.230;10.444;2023-02-28T17:59:12;0.10;99.90
12025;DHT22;6073;53.230;10.444;2023-02-28T18:01:38;0.10;99.90